createdAt,value
2023-02-03T00:03:01.829Z,100.00
2023-02-03T00:13:09.383Z,100.00
2023-02-03T00:23:12.557Z,100.00
2023-02-03T00:33:16.131Z,100.00
2023-02-03T00:43:18.429Z,100.00
2023-02-03T00:53:22.950Z,100.00
2023-02-03T01:03:25.343Z,100.00
2023-02-03T01:13:28.116Z,100.00
2023-02-03T01:23:30.156Z,100.00
2023-02-03T01:33:34.758Z,100.00
2023-02-03T01:43:44.196Z,100.00
2023-02-03T01:53:51.701Z,100.00
2023-02-03T02:04:00.368Z,100.00
2023-02-03T02:14:04.893Z,100.00
2023-02-03T02:24:44.460Z,100.00
2023-02-03T02:34:51.612Z,100.00
2023-02-03T02:45:03.176Z,99.08
2023-02-03T02:55:14.351Z,100.00
2023-02-03T03:05:22.010Z,100.00
2023-02-03T03:15:28.606Z,100.00
2023-02-03T03:25:47.546Z,100.00
2023-02-03T03:35:57.948Z,100.00
2023-02-03T03:46:20.338Z,100.00
2023-02-03T03:56:32.819Z,100.00
2023-02-03T04:06:42.893Z,100.00
2023-02-03T04:16:45.009Z,100.00
2023-02-03T04:26:47.215Z,100.00
2023-02-03T04:36:50.691Z,100.00
2023-02-03T04:46:55.181Z,100.00
2023-02-03T04:56:59.663Z,100.00
2023-02-03T05:07:01.739Z,100.00
2023-02-03T05:17:03.826Z,100.00
2023-02-03T05:27:05.938Z,100.00
2023-02-03T05:37:10.694Z,100.00
2023-02-03T05:47:12.810Z,100.00
2023-02-03T05:57:22.980Z,100.00
2023-02-03T06:07:27.329Z,100.00
2023-02-03T06:17:34.254Z,100.00
2023-02-03T06:27:36.351Z,100.00
2023-02-03T06:37:41.419Z,100.00
2023-02-03T06:47:44.545Z,100.00
2023-02-03T06:57:48.273Z,100.00
2023-02-03T07:07:53.925Z,100.00
2023-02-03T07:17:55.979Z,100.00
2023-02-03T07:27:58.183Z,98.66
2023-02-03T07:38:00.291Z,95.95
2023-02-03T07:48:05.186Z,94.29
2023-02-03T07:58:09.710Z,91.46
2023-02-03T08:08:11.831Z,88.14
2023-02-03T08:18:16.383Z,88.01
2023-02-03T08:28:25.889Z,87.50
2023-02-03T08:38:32.959Z,88.39
2023-02-03T08:48:37.960Z,88.54
2023-02-03T08:58:40.407Z,87.82
2023-02-03T09:08:46.760Z,86.42
2023-02-03T09:18:51.587Z,85.36
2023-02-03T09:28:58.676Z,82.19
2023-02-03T09:39:05.527Z,80.87
2023-02-03T09:49:27.668Z,79.58
2023-02-03T09:59:32.495Z,79.26
2023-02-03T10:10:13.931Z,78.71
2023-02-03T10:20:29.262Z,76.03
2023-02-03T10:30:45.976Z,76.26
2023-02-03T10:40:48.264Z,78.12
2023-02-03T10:50:54.137Z,76.66
2023-02-03T11:01:04.929Z,76.68
2023-02-03T11:11:12.082Z,77.67
2023-02-03T11:21:27.735Z,76.97
2023-02-03T11:31:33.064Z,77.23
2023-02-03T11:41:40.658Z,76.52
2023-02-03T11:52:24.372Z,78.68
2023-02-03T12:02:40.641Z,78.67
2023-02-03T12:13:01.428Z,79.28
2023-02-03T12:23:35.748Z,78.72
2023-02-03T12:33:47.179Z,76.71
2023-02-03T12:43:52.792Z,75.91
2023-02-03T12:54:02.379Z,76.61
2023-02-03T13:04:26.037Z,77.46
2023-02-03T13:14:47.917Z,80.20
2023-02-03T13:25:25.883Z,88.33
2023-02-03T13:35:46.308Z,96.44
2023-02-03T13:45:50.743Z,100.00
2023-02-03T13:55:56.310Z,100.00
2023-02-03T14:06:01.888Z,100.00
2023-02-03T14:16:26.696Z,100.00
2023-02-03T14:26:41.467Z,100.00
2023-02-03T14:36:53.170Z,100.00
2023-02-03T14:47:19.945Z,100.00
2023-02-03T14:57:52.860Z,100.00
2023-02-03T15:07:54.963Z,100.00
2023-02-03T15:18:02.447Z,100.00
2023-02-03T15:28:21.885Z,100.00
2023-02-03T15:38:29.890Z,100.00
2023-02-03T15:49:09.960Z,100.00
2023-02-03T15:59:24.874Z,100.00
2023-02-03T16:09:40.303Z,100.00
2023-02-03T16:19:43.845Z,100.00
2023-02-03T16:30:04.627Z,100.00
2023-02-03T16:40:25.539Z,100.00
2023-02-03T16:50:51.412Z,100.00
2023-02-03T17:00:56.833Z,100.00
2023-02-03T17:11:10.344Z,100.00
2023-02-03T17:21:25.548Z,100.00
2023-02-03T17:31:30.646Z,100.00
2023-02-03T18:02:05.065Z,100.00
2023-02-03T18:12:09.301Z,100.00
2023-02-03T18:22:14.671Z,100.00
2023-02-03T18:32:21.533Z,100.00
2023-02-03T18:42:25.763Z,100.00
2023-02-03T18:52:31.739Z,100.00
2023-02-03T19:02:37.637Z,100.00
2023-02-03T19:12:44.355Z,100.00
2023-02-03T19:22:46.442Z,100.00
2023-02-03T19:32:48.518Z,100.00
2023-02-03T19:42:50.679Z,100.00
2023-02-03T19:52:52.785Z,100.00
2023-02-03T20:02:55.327Z,100.00
2023-02-03T20:12:59.960Z,100.00
2023-02-03T20:23:08.564Z,100.00
2023-02-03T20:33:21.325Z,100.00
2023-02-03T20:54:22.141Z,100.00
2023-02-03T21:04:43.061Z,100.00
2023-02-03T21:14:53.918Z,100.00
2023-02-03T21:25:03.504Z,100.00
2023-02-03T21:35:29.681Z,100.00
2023-02-03T22:07:02.738Z,100.00
2023-02-03T22:17:04.963Z,100.00
2023-02-03T22:27:07.774Z,100.00
2023-02-03T22:37:09.916Z,100.00
2023-02-03T22:47:11.938Z,100.00
2023-02-03T22:57:14.102Z,100.00
2023-02-03T23:07:18.890Z,100.00
2023-02-03T23:17:25.654Z,100.00
2023-02-03T23:27:27.950Z,100.00
2023-02-03T23:37:32.670Z,100.00
2023-02-03T23:47:43.515Z,100.00
2023-02-03T23:57:46.098Z,100.00
